Rangeley, Maine
Current Conditions -  °F | °C
As of 6:52 AM on Thursday 23 Oct 2014 (Local Time) from KBML Reporting Station
Light Rain Light Rain  
Wind Chill: 40°   Ceiling: 1200
Heat Index: 44°   Visibility: 8mi
Dew Point: 42°   Wind: 8mph
Humidity: 93%   Direction: 360°N
Pressure: 29.95"   Gusts: NA
Location:  44.97°N, 70.65°W
Report Text: KBML 231052Z AUTO 36007KT 8SM -RA BKN012 OVC018 07/06 A2995 RMK AO2 SLP150 P0000 T00670056
Loading
Personal Weather Stations






























Interactive Weather Map
Tropical Storm Tracking
New forecast layout! Learn more

10-Day Weather Forecast

Advertisements
Track Severe Weather on mobile